Time;durP1;ratioP1;P1;durP2;ratioP2;P2;SDS_P1;SDS_P2;PMS_P1;PMS_P2;Temp;Humidity;BMP_temperature;BMP_pressure;BME280_temperature;BME280_humidity;BME280_pressure;Samples;Min_cycle;Max_cycle;Signal;HPM_P1;HPM_P2
2021/03/09 00:00:14;;;;;;;33.42;18.95;;;3.10;71.10;;;2.04;54.52;95148.72;5054893;28;20201;-83
2021/03/09 00:02:41;;;;;;;29.63;18.17;;;3.10;71.00;;;2.00;54.20;95149.97;5073305;28;20201;-82
2021/03/09 00:05:09;;;;;;;30.50;17.80;;;3.10;71.00;;;1.95;54.26;95148.72;5056885;28;20287;-83
2021/03/09 00:07:36;;;;;;;31.77;17.60;;;3.10;71.10;;;1.88;53.93;95143.22;5091667;28;20695;-83
2021/03/09 00:10:05;;;;;;;29.83;17.98;;;3.00;71.00;;;1.78;54.51;95134.63;5067157;28;20237;-83
2021/03/09 00:12:32;;;;;;;30.63;17.42;;;3.00;71.00;;;1.75;54.50;95146.88;5071564;28;20221;-82
2021/03/09 00:14:59;;;;;;;34.40;18.17;;;2.90;70.90;;;1.70;54.48;95150.81;5076665;28;20285;-83
2021/03/09 00:17:31;;;;;;;29.13;16.40;;;2.90;70.90;;;1.64;54.59;95146.97;5063224;28;20313;-82
2021/03/09 00:20:00;;;;;;;28.00;17.05;;;2.80;70.80;;;1.58;54.61;95150.91;5077167;28;20248;-83
2021/03/09 00:22:28;;;;;;;29.80;17.67;;;2.80;70.80;;;1.53;54.76;95145.31;5079193;28;20211;-83
2021/03/09 00:24:55;;;;;;;30.48;18.50;;;2.70;70.70;;;1.48;54.51;95150.06;5112227;28;20214;-82
2021/03/09 00:27:21;;;;;;;29.40;17.65;;;2.70;70.70;;;1.41;54.70;95136.81;5075141;28;20219;-83
2021/03/09 00:29:48;;;;;;;27.67;16.52;;;2.70;70.80;;;1.38;54.67;95142.25;5058595;28;20280;-82
2021/03/09 00:32:15;;;;;;;28.58;15.85;;;2.60;70.70;;;1.36;54.84;95144.16;5042019;28;20227;-82
2021/03/09 00:34:42;;;;;;;30.67;17.15;;;2.50;70.60;;;1.31;54.81;95148.88;5058677;28;20245;-83
2021/03/09 00:37:09;;;;;;;31.83;17.58;;;2.50;70.60;;;1.28;54.95;95144.81;5058991;28;20219;-83
2021/03/09 00:39:35;;;;;;;31.45;18.00;;;2.50;70.70;;;1.22;54.92;95142.72;5058883;28;20195;-82
2021/03/09 00:42:03;;;;;;;32.72;18.35;;;2.50;71.80;;;1.18;54.91;95146.50;5041953;28;20230;-82
2021/03/09 00:44:30;;;;;;;34.45;19.23;;;2.40;71.00;;;1.16;55.21;95147.56;5059495;28;20193;-82
2021/03/09 00:46:56;;;;;;;29.92;18.13;;;2.30;70.90;;;1.11;54.89;95143.63;5071759;28;20733;-82
2021/03/09 00:49:23;;;;;;;28.25;16.90;;;2.30;71.00;;;1.07;54.99;95134.47;5075310;28;20203;-83
2021/03/09 00:51:51;;;;;;;30.45;17.55;;;2.30;71.10;;;1.05;55.07;95143.31;5075132;28;20646;-82
2021/03/09 00:54:18;;;;;;;31.88;18.13;;;2.20;71.20;;;1.00;54.96;95137.72;5058571;28;20203;-82
2021/03/09 00:56:45;;;;;;;29.13;16.70;;;2.20;71.30;;;1.03;55.30;95138.28;5074985;28;20219;-82
2021/03/09 00:59:11;;;;;;;29.75;17.42;;;2.20;71.20;;;1.02;55.06;95130.66;5041751;28;20248;-82
2021/03/09 01:01:38;;;;;;;30.33;17.55;;;2.10;71.30;;;1.02;54.98;95144.38;5058236;28;20219;-82
2021/03/09 01:04:05;;;;;;;29.23;17.30;;;2.10;71.30;;;0.99;55.24;95136.06;5052932;28;20260;-81
2021/03/09 01:06:32;;;;;;;28.92;17.33;;;2.10;71.20;;;0.97;55.10;95138.78;5077905;28;20214;-83
2021/03/09 01:08:59;;;;;;;27.20;16.25;;;2.10;71.30;;;0.98;55.38;95144.75;5094594;28;20212;-82
2021/03/09 01:11:25;;;;;;;31.25;17.50;;;2.10;71.80;;;0.97;55.24;95138.78;5052503;28;20223;-82
2021/03/09 01:13:52;;;;;;;27.73;16.83;;;2.00;71.40;;;0.98;55.25;95135.25;5074767;28;20199;-82
2021/03/09 01:16:18;;;;;;;30.42;17.63;;;2.10;71.60;;;1.02;55.37;95130.66;5075966;28;20222;-82
2021/03/09 01:18:45;;;;;;;28.90;17.40;;;2.10;71.70;;;1.01;55.36;95122.06;5050432;28;20195;-83
2021/03/09 01:21:12;;;;;;;30.08;17.58;;;2.00;71.60;;;1.08;55.21;95127.56;5061543;28;20226;-82
2021/03/09 01:23:39;;;;;;;27.73;16.85;;;2.00;71.60;;;1.10;55.00;95123.91;5057916;28;20202;-82
2021/03/09 01:26:05;;;;;;;33.25;18.08;;;2.10;71.70;;;1.10;55.14;95118.72;5077195;28;20218;-82
2021/03/09 01:28:32;;;;;;;28.42;17.50;;;2.10;71.70;;;1.07;55.22;95110.41;5064607;28;20340;-83
2021/03/09 01:30:59;;;;;;;30.67;17.30;;;2.10;71.60;;;1.10;55.27;95112.75;5058009;28;20207;-82
2021/03/09 01:33:26;;;;;;;31.92;17.90;;;2.10;71.60;;;1.11;54.93;95115.22;5088942;28;20206;-84
2021/03/09 01:35:53;;;;;;;31.58;17.58;;;2.10;71.60;;;1.13;55.13;95111.69;5062445;28;20239;-83
2021/03/09 01:38:20;;;;;;;32.75;18.38;;;2.10;71.70;;;1.11;55.17;95102.28;5041131;28;20256;-82
2021/03/09 01:40:47;;;;;;;28.45;16.95;;;2.10;71.70;;;1.12;55.09;95103.09;5057280;28;20705;-83
2021/03/09 01:43:15;;;;;;;29.98;17.02;;;2.10;71.70;;;1.17;55.01;95110.47;5057824;28;20195;-83
2021/03/09 01:45:41;;;;;;;30.38;18.10;;;2.10;71.70;;;1.17;55.12;95103.53;5040993;28;20221;-82
2021/03/09 01:48:08;;;;;;;29.63;17.20;;;2.10;71.70;;;1.14;54.96;95101.22;5040987;28;20230;-83
2021/03/09 01:50:39;;;;;;;29.95;17.00;;;2.20;71.60;;;1.08;54.99;95094.78;5057017;28;20219;-83
2021/03/09 01:53:07;;;;;;;28.63;16.40;;;2.10;71.50;;;1.09;55.00;95098.22;5057908;28;20249;-82
2021/03/09 01:55:35;;;;;;;32.70;17.08;;;2.10;71.50;;;1.04;54.87;95100.34;5057424;28;20214;-82
2021/03/09 01:58:10;;;;;;;31.42;17.98;;;2.10;71.40;;;0.95;54.90;95086.44;5057480;28;20196;-82
2021/03/09 02:00:39;;;;;;;32.30;17.80;;;2.10;71.50;;;0.91;54.90;95092.81;5057517;28;20214;-83
2021/03/09 02:03:07;;;;;;;33.90;18.23;;;2.10;71.30;;;0.83;54.91;95093.47;5057244;28;20641;-83
2021/03/09 02:05:35;;;;;;;31.05;17.73;;;2.00;71.10;;;0.75;54.85;95082.94;5073639;28;20212;-82
2021/03/09 02:08:02;;;;;;;32.08;18.55;;;2.00;71.10;;;0.70;54.94;95083.31;5074026;28;20219;-82
2021/03/09 02:10:30;;;;;;;29.92;17.13;;;1.90;71.10;;;0.63;54.93;95090.75;5057254;28;20207;-82
2021/03/09 02:13:16;;;;;;;30.98;18.17;;;1.90;71.10;;;0.54;54.89;95085.50;5057530;28;20195;-82
2021/03/09 02:16:07;;;;;;;28.83;17.10;;;1.80;71.70;;;0.40;54.92;95079.72;5073875;28;20223;-83
2021/03/09 02:19:08;;;;;;;35.33;17.95;;;1.70;71.60;;;0.33;55.17;95076.03;5057201;28;20221;-83
2021/03/09 02:22:03;;;;;;;30.58;16.25;;;1.70;71.60;;;0.24;54.94;95074.97;5075816;28;20571;-83
2021/03/09 02:25:10;;;;;;;30.15;17.38;;;1.60;71.50;;;0.14;55.05;95081.84;5093668;28;20179;-82
2021/03/09 02:27:54;;;;;;;31.52;18.33;;;1.50;71.50;;;0.04;55.09;95078.34;5093343;28;20222;-83
2021/03/09 02:30:30;;;;;;;31.15;17.55;;;1.50;71.40;;;0.00;55.26;95077.78;5076916;28;20186;-82
2021/03/09 02:33:13;;;;;;;32.38;18.08;;;1.40;72.00;;;-0.05;55.32;95080.72;5076511;28;20206;-83
2021/03/09 02:35:48;;;;;;;31.88;18.48;;;1.30;71.10;;;-0.11;55.26;95073.50;5109828;28;20604;-82
2021/03/09 02:38:18;;;;;;;30.08;17.33;;;1.30;71.30;;;-0.13;55.25;95074.56;5093373;28;20195;-83
2021/03/09 02:40:45;;;;;;;32.65;18.35;;;1.20;71.10;;;-0.17;55.08;95079.13;5076043;28;20226;-83
2021/03/09 02:43:16;;;;;;;31.55;17.80;;;1.20;72.00;;;-0.22;55.27;95074.34;5059997;28;20564;-81
2021/03/09 02:45:49;;;;;;;30.67;17.88;;;1.10;71.30;;;-0.26;55.14;95078.06;5076359;28;20233;-82
2021/03/09 02:48:21;;;;;;;33.67;17.90;;;1.10;71.40;;;-0.29;55.09;95077.50;5076342;28;20671;-83
2021/03/09 02:50:52;;;;;;;34.47;17.77;;;1.00;71.30;;;-0.31;55.29;95082.78;5046747;28;20248;-81
2021/03/09 02:53:19;;;;;;;31.35;17.60;;;1.00;71.30;;;-0.35;55.37;95079.63;5072863;28;20191;-82
2021/03/09 02:55:49;;;;;;;37.17;18.52;;;0.90;71.20;;;-0.36;54.89;95077.19;5047711;28;20291;-82
2021/03/09 02:58:19;;;;;;;31.00;17.88;;;0.90;71.30;;;-0.40;55.34;95074.03;5071873;28;20190;-82
2021/03/09 03:00:51;;;;;;;33.13;17.83;;;0.90;71.40;;;-0.45;55.07;95071.00;5069829;28;20214;-82
2021/03/09 03:03:19;;;;;;;31.00;17.60;;;0.80;71.50;;;-0.52;55.04;95070.63;5045180;28;20199;-81
2021/03/09 03:05:47;;;;;;;30.13;16.70;;;0.80;72.10;;;-0.56;55.19;95076.16;5063421;28;20243;-81
2021/03/09 03:08:15;;;;;;;32.65;18.08;;;0.80;71.30;;;-0.59;55.35;95081.56;5080033;28;20716;-82
2021/03/09 03:10:46;;;;;;;31.13;17.90;;;0.70;71.20;;;-0.66;55.37;95076.88;5067205;28;20231;-82
2021/03/09 03:13:15;;;;;;;30.15;17.48;;;0.70;71.50;;;-0.72;54.95;95074.78;5055093;28;20211;-81
2021/03/09 03:15:42;;;;;;;32.22;17.80;;;0.60;71.30;;;-0.79;55.48;95070.19;5047755;28;20223;-82
2021/03/09 03:18:13;;;;;;;31.27;17.63;;;0.60;71.30;;;-0.81;55.45;95075.47;5070426;28;20199;-81
2021/03/09 03:20:43;;;;;;;31.15;17.13;;;0.50;71.30;;;-0.92;55.39;95070.34;5052335;28;20221;-81
2021/03/09 03:23:13;;;;;;;33.67;18.10;;;0.50;71.40;;;-0.92;55.59;95076.28;5053810;28;20220;-81
2021/03/09 03:25:44;;;;;;;34.88;18.10;;;0.50;71.30;;;-0.97;55.42;95079.22;5050254;28;20225;-82
2021/03/09 03:28:13;;;;;;;29.52;16.65;;;0.40;71.30;;;-1.03;55.42;95073.72;5070515;28;20279;-81
2021/03/09 03:30:40;;;;;;;32.47;17.83;;;0.40;71.30;;;-1.09;55.78;95069.84;5051072;28;20227;-82
2021/03/09 03:33:07;;;;;;;32.33;17.83;;;0.30;71.20;;;-1.15;55.52;95068.56;5072288;28;20203;-81
2021/03/09 03:35:34;;;;;;;34.40;17.95;;;0.20;71.10;;;-1.19;55.51;95076.63;5070564;28;20231;-82
2021/03/09 03:38:02;;;;;;;34.08;17.45;;;0.20;71.20;;;-1.26;55.29;95067.75;5065560;28;20202;-81
2021/03/09 03:40:30;;;;;;;33.35;18.05;;;0.20;71.30;;;-1.32;55.47;95066.44;5051871;28;20230;-81
2021/03/09 03:42:58;;;;;;;32.47;17.67;;;0.10;71.10;;;-1.39;55.47;95068.66;5077995;28;20731;-82
2021/03/09 03:45:26;;;;;;;32.20;16.75;;;0.00;71.10;;;-1.43;55.55;95061.28;5069937;28;20625;-81
2021/03/09 03:47:58;;;;;;;31.05;16.88;;;0.00;71.20;;;-1.51;55.47;95067.00;5071663;28;20226;-81
2021/03/09 03:50:27;;;;;;;30.98;17.17;;;-0.10;71.40;;;-1.54;55.52;95064.66;5065434;28;20207;-81
2021/03/09 03:53:20;;;;;;;30.15;16.75;;;-0.10;71.20;;;-1.61;55.50;95067.69;5080809;28;20603;-81
2021/03/09 03:56:16;;;;;;;35.60;18.55;;;-0.20;71.70;;;-1.65;55.83;95066.28;5070470;28;20752;-81
2021/03/09 03:59:06;;;;;;;31.58;17.27;;;-0.20;72.00;;;-1.71;55.36;95063.31;5066461;28;20209;-81
2021/03/09 04:01:35;;;;;;;28.45;16.40;;;-0.30;72.00;;;-1.72;56.17;95059.09;5086465;28;20503;-82
2021/03/09 04:04:08;;;;;;;32.90;17.45;;;-0.30;71.40;;;-1.76;55.64;95048.22;5048575;28;20382;-81
2021/03/09 04:06:38;;;;;;;28.90;16.30;;;-0.30;71.70;;;-1.85;55.83;95041.19;5065112;28;20223;-82
2021/03/09 04:09:07;;;;;;;29.70;16.90;;;-0.40;71.40;;;-1.83;55.65;95054.75;5055210;28;20560;-82
2021/03/09 04:11:36;;;;;;;34.17;17.67;;;-0.30;71.50;;;-1.89;55.74;95053.47;5055258;28;20245;-82
2021/03/09 04:14:04;;;;;;;30.95;17.45;;;-0.50;71.40;;;-1.91;55.83;95050.16;5066464;28;20707;-82
2021/03/09 04:16:34;;;;;;;32.60;17.92;;;-0.50;71.50;;;-1.92;55.81;95058.00;5065552;28;20219;-81
2021/03/09 04:19:04;;;;;;;34.10;17.08;;;-0.50;71.60;;;-1.96;56.07;95052.25;5061201;28;20199;-82
2021/03/09 04:21:33;;;;;;;32.22;17.75;;;-0.60;71.70;;;-1.92;55.97;95052.88;5066149;28;20230;-80
2021/03/09 04:24:01;;;;;;;32.72;17.25;;;-0.60;71.80;;;-1.96;55.85;95053.06;5070589;28;20725;-83
2021/03/09 04:26:29;;;;;;;28.67;15.75;;;-0.60;71.70;;;-1.97;56.15;95051.44;5062119;28;20218;-81
2021/03/09 04:28:56;;;;;;;28.52;15.50;;;-0.60;71.80;;;-1.98;55.96;95049.81;5069545;28;20179;-82
2021/03/09 04:31:25;;;;;;;28.35;15.85;;;-0.60;71.70;;;-2.01;55.84;95052.59;5067386;28;20328;-81
2021/03/09 04:33:52;;;;;;;29.60;16.23;;;-0.60;71.70;;;-2.05;55.88;95045.22;5075060;28;20202;-82
2021/03/09 04:36:20;;;;;;;28.13;15.85;;;-0.70;71.70;;;-2.05;55.91;95050.34;5073873;28;20218;-82
2021/03/09 04:38:48;;;;;;;33.45;17.27;;;-0.70;71.70;;;-2.07;56.24;95045.31;5053079;28;20198;-81
2021/03/09 04:41:16;;;;;;;32.83;17.35;;;-0.70;71.80;;;-2.07;56.49;95055.59;5069306;28;20708;-82
2021/03/09 04:43:43;;;;;;;32.63;17.48;;;-0.70;72.00;;;-2.06;56.70;95046.97;5052989;28;20672;-82
2021/03/09 04:46:10;;;;;;;33.50;17.85;;;-0.70;71.90;;;-2.05;56.52;95040.06;5035902;28;20223;-81
2021/03/09 04:48:39;;;;;;;32.92;17.52;;;-0.70;72.90;;;-2.02;56.48;95045.00;5052707;28;20249;-82
2021/03/09 04:51:10;;;;;;;31.95;15.90;;;-0.70;72.10;;;-2.03;56.30;95046.72;5036490;28;20293;-81
2021/03/09 04:53:39;;;;;;;27.33;15.80;;;-0.70;72.20;;;-2.05;56.75;95045.22;5053321;28;20200;-81
2021/03/09 04:56:07;;;;;;;28.38;15.95;;;-0.70;72.10;;;-2.11;56.39;95042.16;5054652;28;20239;-81
2021/03/09 04:58:35;;;;;;;31.70;16.30;;;-0.70;72.00;;;-2.07;56.33;95044.53;5054666;28;20195;-82
2021/03/09 05:01:03;;;;;;;29.08;16.50;;;-0.80;71.90;;;-2.08;56.45;95046.25;5056279;28;20246;-81
2021/03/09 05:03:32;;;;;;;31.23;16.60;;;-0.70;72.10;;;-2.10;57.17;95046.38;5056236;28;20198;-81
2021/03/09 05:05:59;;;;;;;29.05;15.98;;;-0.80;72.20;;;-2.09;56.65;95044.63;5059419;28;20273;-82
2021/03/09 05:08:27;;;;;;;28.13;15.93;;;-0.80;72.10;;;-2.07;56.73;95044.53;5076059;28;20238;-82
2021/03/09 05:10:54;;;;;;;30.90;15.43;;;-0.80;72.20;;;-2.05;56.57;95045.22;5075703;28;20231;-81
2021/03/09 05:13:21;;;;;;;30.40;15.18;;;-0.80;72.30;;;-2.04;56.61;95039.16;5076529;28;20205;-81
2021/03/09 05:15:48;;;;;;;30.55;16.67;;;-0.70;72.30;;;-2.02;56.67;95042.44;5076367;28;20235;-81
2021/03/09 05:18:16;;;;;;;29.15;15.75;;;-0.70;72.30;;;-2.02;56.61;95050.94;5060191;28;20320;-82
2021/03/09 05:20:43;;;;;;;28.58;16.50;;;-0.80;72.30;;;-2.01;56.97;95050.03;5076201;28;20219;-82
2021/03/09 05:23:10;;;;;;;27.42;15.93;;;-0.70;72.30;;;-1.98;56.92;95054.13;5078133;28;20191;-82
2021/03/09 05:25:38;;;;;;;30.85;16.50;;;-0.70;72.30;;;-1.95;57.03;95051.34;5061592;28;20219;-81
2021/03/09 05:28:05;;;;;;;27.05;15.48;;;-0.70;72.50;;;-1.94;56.78;95045.28;5077565;28;20680;-82
2021/03/09 05:30:32;;;;;;;28.35;14.55;;;-0.70;72.50;;;-1.91;56.96;95044.22;5060381;28;20198;-81
2021/03/09 05:32:59;;;;;;;27.73;16.05;;;-0.70;72.50;;;-1.87;56.97;95048.19;5093628;28;20195;-82
2021/03/09 05:35:26;;;;;;;27.73;15.80;;;-0.70;72.40;;;-1.87;56.71;95040.50;5094097;28;20187;-81
2021/03/09 05:37:53;;;;;;;25.27;14.50;;;-0.70;72.40;;;-1.84;56.93;95053.13;5067803;28;20211;-81
2021/03/09 05:40:20;;;;;;;25.45;13.85;;;-0.60;72.50;;;-1.86;56.79;95042.94;5057545;28;20183;-81
2021/03/09 05:42:52;;;;;;;22.42;13.93;;;-0.60;72.50;;;-1.82;56.67;95048.69;5057214;28;20195;-81
2021/03/09 05:45:21;;;;;;;25.40;15.27;;;-0.60;72.70;;;-1.83;56.70;95044.47;5057474;28;20196;-82
2021/03/09 05:47:49;;;;;;;27.05;14.70;;;-0.60;72.50;;;-1.78;56.88;95050.91;5057068;28;20227;-81
2021/03/09 05:50:16;;;;;;;23.35;13.65;;;-0.60;73.40;;;-1.70;56.84;95052.09;5073727;28;20199;-81
2021/03/09 05:52:44;;;;;;;24.67;14.88;;;-0.50;72.70;;;-1.66;56.96;95049.19;5057343;28;20187;-82
2021/03/09 05:55:12;;;;;;;25.27;15.15;;;-0.60;72.60;;;-1.57;56.86;95039.97;5073848;28;20598;-81
2021/03/09 05:57:39;;;;;;;25.17;14.75;;;-0.50;72.80;;;-1.50;57.06;95048.03;5040894;28;20191;-82
2021/03/09 06:00:09;;;;;;;26.55;15.10;;;-0.50;72.80;;;-1.43;57.05;95040.69;5057163;28;20207;-81
2021/03/09 06:02:40;;;;;;;28.77;15.35;;;-0.40;73.00;;;-1.36;56.86;95049.59;5057380;28;20199;-81
2021/03/09 06:05:10;;;;;;;24.23;13.75;;;-0.40;72.80;;;-1.29;56.91;95040.50;5073174;28;20261;-81
2021/03/09 06:07:38;;;;;;;24.48;13.82;;;-0.30;73.00;;;-1.24;56.69;95040.16;5051592;28;20303;-80
2021/03/09 06:10:20;;;;;;;30.50;16.45;;;-0.30;72.90;;;-1.19;56.94;95044.00;5076821;28;20202;-81
2021/03/09 06:12:47;;;;;;;25.20;15.13;;;-0.20;73.00;;;-1.14;56.73;95044.44;5076875;28;20205;-80
2021/03/09 06:15:13;;;;;;;26.02;13.98;;;-0.20;73.00;;;-1.04;56.81;95044.59;5060138;28;20293;-81
2021/03/09 06:17:43;;;;;;;29.13;14.55;;;-0.10;73.10;;;-1.01;56.70;95036.63;5076647;28;20237;-80
2021/03/09 06:20:29;;;;;;;32.75;17.42;;;-0.10;73.10;;;-0.94;56.76;95036.16;5093629;28;20274;-81
2021/03/09 06:22:59;;;;;;;31.13;17.33;;;0.00;73.10;;;-0.90;56.88;95038.38;5060084;28;20206;-80
2021/03/09 06:25:31;;;;;;;32.03;17.88;;;0.10;73.10;;;-0.83;57.08;95039.53;5093191;28;20210;-82
2021/03/09 06:28:04;;;;;;;30.10;17.35;;;0.10;72.90;;;-0.78;56.76;95036.63;5076995;28;20692;-80
2021/03/09 06:30:37;;;;;;;27.90;16.20;;;0.20;73.20;;;-0.73;56.67;95042.22;5076484;28;20195;-81
2021/03/09 06:33:07;;;;;;;27.20;14.40;;;0.20;73.00;;;-0.66;56.60;95042.56;5076719;28;20199;-81
2021/03/09 06:35:41;;;;;;;26.60;14.23;;;0.30;73.00;;;-0.60;56.85;95049.00;5075840;28;20210;-82
2021/03/09 06:38:20;;;;;;;31.52;15.15;;;0.30;73.20;;;-0.55;56.61;95046.88;5059740;28;20283;-81
2021/03/09 06:41:09;;;;;;;24.25;13.60;;;0.40;73.30;;;-0.45;56.70;95052.13;5092771;28;20222;-81
2021/03/09 06:43:42;;;;;;;24.73;13.27;;;0.50;73.30;;;-0.39;56.76;95046.47;5093154;28;20198;-81
2021/03/09 06:46:20;;;;;;;25.00;13.95;;;0.50;73.00;;;-0.31;56.76;95041.53;5059649;28;20221;-81
2021/03/09 06:49:01;;;;;;;24.00;13.27;;;0.60;73.30;;;-0.21;56.70;95047.63;5074312;28;20199;-81
2021/03/09 06:51:33;;;;;;;24.48;13.55;;;0.60;73.20;;;-0.10;56.51;95040.78;5051648;28;20225;-81
2021/03/09 06:54:11;;;;;;;22.73;13.30;;;0.70;73.30;;;-0.02;56.47;95046.94;5069160;28;20210;-81
2021/03/09 06:56:41;;;;;;;25.38;14.00;;;0.70;73.40;;;0.06;56.49;95042.94;5068916;28;20275;-81
2021/03/09 06:59:32;;;;;;;22.75;12.93;;;0.80;73.10;;;0.12;56.48;95050.19;5064715;28;20236;-81
2021/03/09 07:02:15;;;;;;;21.98;13.52;;;0.90;73.40;;;0.20;56.18;95057.31;5073980;28;20214;-82
2021/03/09 07:05:09;;;;;;;24.70;14.50;;;1.00;73.20;;;0.28;56.42;95053.16;5071955;28;20232;-81
2021/03/09 07:07:42;;;;;;;23.75;13.40;;;1.10;73.10;;;0.34;56.47;95054.41;5068905;28;20239;-81
2021/03/09 07:10:12;;;;;;;21.70;12.80;;;1.20;73.20;;;0.39;56.35;95044.56;5062426;28;20263;-81
2021/03/09 07:12:42;;;;;;;23.00;14.52;;;1.20;73.10;;;0.47;56.45;95043.91;5070761;28;20556;-81
2021/03/09 07:15:16;;;;;;;24.60;13.65;;;1.30;73.10;;;0.53;56.21;95050.34;5061925;28;20183;-81
2021/03/09 07:17:45;;;;;;;25.27;15.10;;;1.30;73.00;;;0.55;56.18;95048.44;5093584;28;20222;-81
2021/03/09 07:20:15;;;;;;;32.38;25.52;;;1.40;72.90;;;0.57;56.65;95052.53;5069088;28;20271;-81
2021/03/09 07:22:52;;;;;;;23.80;15.98;;;1.40;72.80;;;0.63;56.22;95057.19;5063443;28;20199;-81
2021/03/09 07:25:20;;;;;;;22.85;14.27;;;1.50;72.90;;;0.68;56.32;95050.81;5062273;28;20202;-81
2021/03/09 07:28:03;;;;;;;21.13;14.40;;;1.50;72.80;;;0.73;55.97;95052.09;5065949;28;20218;-81
2021/03/09 07:30:37;;;;;;;24.13;14.05;;;1.50;73.00;;;0.75;56.08;95050.19;5065049;28;20196;-81
2021/03/09 07:33:06;;;;;;;27.17;15.05;;;1.60;72.70;;;0.82;56.25;95050.50;5067366;28;20695;-81
2021/03/09 07:35:35;;;;;;;34.63;15.52;;;1.60;72.70;;;0.88;56.16;95055.16;5074001;28;20232;-81
2021/03/09 07:38:05;;;;;;;24.75;14.38;;;1.70;72.70;;;0.92;56.33;95053.13;5070222;28;20207;-81
2021/03/09 07:40:35;;;;;;;22.75;13.73;;;1.80;72.70;;;0.98;56.07;95052.63;5045968;28;20195;-81
2021/03/09 07:43:05;;;;;;;18.95;12.27;;;1.80;72.70;;;1.07;56.27;95056.19;5065010;28;20194;-81
2021/03/09 07:45:36;;;;;;;19.33;11.18;;;1.80;72.70;;;1.18;56.09;95060.44;5045857;28;20195;-81
2021/03/09 07:48:11;;;;;;;22.17;12.43;;;1.90;72.90;;;1.27;56.26;95055.31;5062681;28;20230;-82
2021/03/09 07:50:42;;;;;;;23.80;12.45;;;2.00;72.80;;;1.39;55.95;95052.63;5063434;28;20299;-81
2021/03/09 07:53:09;;;;;;;22.08;11.95;;;2.00;72.70;;;1.47;55.98;95057.16;5068660;28;20244;-81
2021/03/09 07:55:38;;;;;;;19.13;12.45;;;2.10;72.90;;;1.58;55.76;95055.25;5066364;28;20215;-82
2021/03/09 07:58:24;;;;;;;19.10;11.90;;;2.20;72.80;;;1.69;55.78;95046.56;5057884;28;20217;-81
2021/03/09 08:01:09;;;;;;;21.55;12.20;;;2.30;72.70;;;1.80;55.65;95047.41;5053172;28;20238;-82
2021/03/09 08:03:40;;;;;;;18.42;12.23;;;2.40;72.70;;;1.91;55.68;95049.88;5049648;28;20222;-81
2021/03/09 08:06:16;;;;;;;22.10;11.50;;;2.50;72.70;;;2.02;55.48;95047.13;5048355;28;20725;-81
2021/03/09 08:08:55;;;;;;;17.08;10.45;;;2.60;72.60;;;2.16;55.02;95055.44;5067784;28;20241;-81
2021/03/09 08:11:24;;;;;;;15.30;10.60;;;2.70;72.30;;;2.27;54.96;95055.34;5051584;28;20225;-81
2021/03/09 08:14:03;;;;;;;18.20;11.25;;;2.80;72.50;;;2.37;54.96;95045.78;5069078;28;20187;-82
2021/03/09 08:16:44;;;;;;;14.30;9.50;;;2.90;72.10;;;2.48;54.79;95044.81;5065834;28;20211;-81
2021/03/09 08:19:25;;;;;;;18.77;10.43;;;3.00;71.80;;;2.61;54.43;95041.91;5044020;28;20201;-81
2021/03/09 08:22:00;;;;;;;16.50;9.88;;;3.10;71.90;;;2.70;54.19;95035.91;5095811;28;20720;-81
2021/03/09 08:24:52;;;;;;;15.90;9.68;;;3.20;71.90;;;2.82;54.51;95033.97;5061931;28;20201;-81
2021/03/09 08:27:36;;;;;;;16.17;10.32;;;3.30;71.40;;;2.96;54.01;95031.88;5062378;28;20804;-82
2021/03/09 08:30:25;;;;;;;19.17;11.05;;;3.40;71.30;;;3.07;53.81;95034.28;5067082;28;20187;-82
2021/03/09 08:32:52;;;;;;;16.83;10.25;;;3.50;71.30;;;3.16;53.61;95030.84;5063755;28;20203;-82
2021/03/09 08:35:19;;;;;;;19.55;11.52;;;3.60;71.40;;;3.24;53.11;95021.56;5062321;28;20203;-81
2021/03/09 08:37:49;;;;;;;15.05;10.10;;;3.80;71.50;;;3.33;53.21;95023.25;5072138;28;20203;-81
2021/03/09 08:40:22;;;;;;;17.38;9.80;;;3.80;71.50;;;3.39;53.01;95027.88;5071181;28;20255;-81
2021/03/09 08:43:16;;;;;;;18.55;10.25;;;3.90;71.30;;;3.46;52.83;95025.53;5064013;28;20227;-81
2021/03/09 08:45:52;;;;;;;15.50;9.52;;;4.00;70.70;;;3.52;52.58;95028.34;5072347;28;20225;-81
2021/03/09 08:48:44;;;;;;;14.90;9.45;;;4.00;70.50;;;3.59;52.84;95027.75;5082179;28;20428;-81
2021/03/09 08:51:46;;;;;;;13.25;9.55;;;4.10;70.60;;;3.66;52.67;95024.47;5068933;28;20589;-81
2021/03/09 08:54:23;;;;;;;15.60;10.02;;;4.20;70.60;;;3.74;52.41;95025.50;4996425;28;20291;-81
2021/03/09 08:56:51;;;;;;;15.20;9.52;;;4.30;70.60;;;3.82;52.69;95026.41;5052714;28;20763;-81
2021/03/09 08:59:27;;;;;;;15.90;10.75;;;4.30;70.70;;;3.91;52.08;95024.69;5081185;28;20264;-81
2021/03/09 09:02:17;;;;;;;15.68;9.82;;;4.40;70.50;;;4.01;52.27;95024.63;5076913;28;20655;-82
2021/03/09 09:04:58;;;;;;;15.57;10.40;;;4.40;70.60;;;4.16;52.26;95028.34;5072927;28;20195;-83
2021/03/09 09:07:37;;;;;;;13.73;10.00;;;4.50;70.50;;;4.29;52.14;95016.75;5080156;28;20310;-81
2021/03/09 09:10:10;;;;;;;22.75;11.60;;;4.70;70.70;;;4.42;51.66;95016.34;5069369;28;20252;-81
2021/03/09 09:12:47;;;;;;;15.70;9.65;;;4.80;70.60;;;4.56;52.06;95017.59;5073309;28;20221;-81
2021/03/09 09:15:29;;;;;;;15.38;10.07;;;4.90;70.70;;;4.69;51.77;95019.78;5083447;28;20208;-81
2021/03/09 09:18:03;;;;;;;14.60;9.80;;;4.90;70.30;;;4.79;51.54;95012.72;5076566;28;20448;-82
2021/03/09 09:20:38;;;;;;;18.95;10.95;;;5.10;70.40;;;4.90;50.56;95014.25;5059003;28;20205;-81
2021/03/09 09:23:27;;;;;;;16.70;10.43;;;5.20;69.90;;;4.99;51.41;95015.91;5075919;28;20198;-81
2021/03/09 09:25:57;;;;;;;15.95;9.90;;;5.30;69.80;;;5.09;50.66;95020.97;5076388;28;20218;-82
2021/03/09 09:28:35;;;;;;;13.55;10.00;;;5.40;69.70;;;5.17;51.08;95020.22;5089065;28;20222;-81
2021/03/09 09:31:19;;;;;;;13.90;10.65;;;5.50;69.40;;;5.35;50.62;95013.16;5083544;28;20225;-81
2021/03/09 09:33:48;;;;;;;15.60;10.57;;;5.60;69.40;;;5.47;50.05;95010.25;5072342;28;20206;-81
2021/03/09 09:36:16;;;;;;;17.15;10.52;;;5.70;69.50;;;5.53;50.66;94997.44;5061111;28;20284;-81
2021/03/09 09:38:42;;;;;;;15.25;10.43;;;5.80;69.60;;;5.69;49.65;95001.03;5075787;28;20203;-81
2021/03/09 09:41:10;;;;;;;14.00;9.77;;;5.90;69.30;;;5.82;50.37;95008.41;5077917;28;20215;-82
2021/03/09 09:43:37;;;;;;;14.65;10.40;;;6.00;69.40;;;5.97;49.63;95008.56;5053299;28;20737;-82
2021/03/09 09:46:36;;;;;;;14.90;9.70;;;6.20;69.30;;;6.08;49.43;95001.31;5067683;28;20227;-82
2021/03/09 09:49:04;;;;;;;15.07;10.05;;;6.30;68.80;;;6.22;49.24;95001.63;5040529;28;20221;-82
2021/03/09 09:51:31;;;;;;;15.27;10.32;;;6.40;69.00;;;6.34;48.78;94992.53;5057980;28;20321;-82
2021/03/09 09:54:17;;;;;;;14.48;10.25;;;6.50;68.80;;;6.46;48.23;94986.97;5062078;28;20768;-82
2021/03/09 09:56:47;;;;;;;13.38;10.00;;;6.70;68.60;;;6.57;48.37;94989.25;5055384;28;20300;-82
2021/03/09 09:59:27;;;;;;;14.43;10.80;;;6.70;68.50;;;6.73;48.61;94986.59;5055490;28;20200;-82
2021/03/09 10:01:54;;;;;;;15.40;10.68;;;6.90;68.20;;;6.88;48.27;94986.75;5038577;28;20229;-82
2021/03/09 10:04:22;;;;;;;16.67;10.82;;;7.00;68.40;;;6.94;47.48;94985.25;5076603;28;20195;-81
2021/03/09 10:06:52;;;;;;;22.00;10.77;;;7.10;68.10;;;7.08;47.29;94990.75;5073664;28;20215;-81
2021/03/09 10:09:24;;;;;;;15.15;10.27;;;7.20;67.80;;;7.19;46.82;94987.81;5066432;28;20225;-82
2021/03/09 10:11:59;;;;;;;15.60;10.65;;;7.40;67.30;;;7.23;46.13;94989.09;5069271;28;20214;-81
2021/03/09 10:14:33;;;;;;;17.13;11.55;;;7.40;66.60;;;7.19;45.15;94991.22;5054539;28;20225;-82
2021/03/09 10:17:02;;;;;;;13.93;10.15;;;7.50;66.20;;;7.20;46.15;94987.63;5075797;28;20210;-81
2021/03/09 10:19:38;;;;;;;15.60;10.68;;;7.50;66.70;;;7.18;45.51;94986.19;5063722;28;20194;-82
2021/03/09 10:22:20;;;;;;;14.45;9.95;;;7.60;65.70;;;7.15;46.12;94976.06;5082836;28;20215;-82
2021/03/09 10:24:47;;;;;;;13.98;9.93;;;7.60;65.70;;;7.21;45.90;94993.66;5075578;28;20206;-82
2021/03/09 10:27:24;;;;;;;22.23;9.57;;;7.70;66.20;;;7.24;45.77;94982.91;5076515;28;20267;-82
2021/03/09 10:29:56;;;;;;;14.25;9.93;;;7.80;66.20;;;7.22;45.15;94977.03;5076496;28;20206;-82
2021/03/09 10:32:22;;;;;;;17.80;10.80;;;7.70;65.50;;;7.20;45.06;94982.41;5059923;28;20230;-82
2021/03/09 10:34:57;;;;;;;15.43;9.50;;;7.70;65.50;;;7.18;45.33;94970.53;5074555;28;20244;-82